El Paso, TX (88549)

11:20 AM MDT on May 28, 2015 (GMT -0600)
Shock | | Change Station
CLOSE
Current Station
Personal Weather Station
Location: El Paso, TX
Elevation: 3924 ft
Nearby Weather Stations

Elev 3924 ft 31.76 °N, 106.33 °W | Updated 11 minutes ago

Clear
Clear
87.8 °F
Feels Like 84 °F
N
11.9
Wind Variable Wind from SSW

Today
High -- | Low -- °F
--% Chance of Precip.
Yesterday
High -- | Low -- °F
Precip. -- in
6:01 AM 8:03 PM
Waxing Gibbous, 77% visible
Pressure 29.80 in
Visibility 10.0 miles
Clouds Few 13000 ft
Few 25000 ft
Heat Index 84 °F
Dew Point 27 °F
Humidity 11%
Rainfall 0.00 in
Snow Depth Not available.
UV 9 out of 12
Pollen 5.80 out of 12
Air Quality Not available.
Flu Activity Sporadic
METAR KELP 281651Z 30010G15KT 10SM FEW130 FEW250 31/M08 A3003 RMK AO2 SLP089 T03061083

More Conditions Fewer Conditions

Pressure 29.80 in
Visibility 10.0 miles
Clouds Few 13000 ft
Few 25000 ft
Heat Index 84 °F
Dew Point 27 °F
Humidity 11%
Rainfall 0.00 in
Snow Depth Not available.
UV 9 out of 12
Pollen 5.80 out of 12
Air Quality Not available.
Flu Activity Sporadic
METAR KELP 281651Z 30010G15KT 10SM FEW130 FEW250 31/M08 A3003 RMK AO2 SLP089 T03061083

More Conditions Fewer Conditions

10-Day Weather Forecast

Almanac

Astronomy

May. 28, 2015 Rise Set
Actual Time
Civil Twilight
Nautical Twilight
Astronomical Twilight
Moon
Length of Visible Light
Length of Day
Tomorrow will be .
, % of the Moon is Illuminated

Today's Extremes

State Highs State Lows

Community

WunderPhotos

Upload Photos

1,825,007 photos uploaded!

WunderBlogs® & News

Nearby

Air Quality

  Air Quality AQ Index Pollutant
Not available.

Snow Depth

Station Depth Elevation

Earthquake Activity

City Distance Mag. Time & Date
Minimum magnitude displayed is 2.5.

Coastal Water Temperatures

Place Temperature

Stations

Nearby Weather Stations

Station Location Temp. Windchill Dew Point Humidity Wind Precip. Elev Updated Type